sensor_id;sensor_type;location;lat;lon;timestamp;pressure;altitude;pressure_sealevel;temperature;humidity
15229;BME280;7717;47.792;12.076;2022-12-29T00:02:13;96095.09;;;4.24;100.00
15229;BME280;7717;47.792;12.076;2022-12-29T00:04:39;96085.13;;;4.33;100.00
15229;BME280;7717;47.792;12.076;2022-12-29T00:07:05;96091.81;;;4.30;100.00
15229;BME280;7717;47.792;12.076;2022-12-29T00:09:31;96096.25;;;4.42;100.00
15229;BME280;7717;47.792;12.076;2022-12-29T00:11:57;96096.84;;;4.28;100.00
15229;BME280;7717;47.792;12.076;2022-12-29T00:14:23;96099.09;;;4.13;100.00
15229;BME280;7717;47.792;12.076;2022-12-29T00:17:08;96102.44;;;4.12;100.00
15229;BME280;7717;47.792;12.076;2022-12-29T00:19:33;96089.63;;;4.04;100.00
15229;BME280;7717;47.792;12.076;2022-12-29T00:22:17;96096.34;;;4.01;100.00
15229;BME280;7717;47.792;12.076;2022-12-29T00:25:02;96098.66;;;3.90;100.00
15229;BME280;7717;47.792;12.076;2022-12-29T00:27:31;96103.69;;;3.88;100.00
15229;BME280;7717;47.792;12.076;2022-12-29T00:30:23;96097.03;;;3.93;100.00
15229;BME280;7717;47.792;12.076;2022-12-29T00:33:14;96095.13;;;3.82;100.00
15229;BME280;7717;47.792;12.076;2022-12-29T00:36:10;96082.31;;;3.74;100.00
15229;BME280;7717;47.792;12.076;2022-12-29T00:38:40;96096.09;;;3.88;100.00
15229;BME280;7717;47.792;12.076;2022-12-29T00:41:25;96084.19;;;3.84;100.00
15229;BME280;7717;47.792;12.076;2022-12-29T00:44:10;96093.66;;;3.93;100.00
15229;BME280;7717;47.792;12.076;2022-12-29T00:46:38;96081.19;;;4.04;100.00
15229;BME280;7717;47.792;12.076;2022-12-29T00:49:05;96079.81;;;4.21;100.00
15229;BME280;7717;47.792;12.076;2022-12-29T00:51:50;96086.56;;;4.19;100.00
15229;BME280;7717;47.792;12.076;2022-12-29T00:54:16;96071.34;;;4.19;100.00
15229;BME280;7717;47.792;12.076;2022-12-29T00:56:41;96072.22;;;4.21;100.00
15229;BME280;7717;47.792;12.076;2022-12-29T00:59:10;96074.75;;;4.21;100.00
15229;BME280;7717;47.792;12.076;2022-12-29T01:01:37;96069.69;;;4.21;100.00
15229;BME280;7717;47.792;12.076;2022-12-29T01:04:03;96070.34;;;4.11;100.00
15229;BME280;7717;47.792;12.076;2022-12-29T01:06:29;96057.72;;;4.14;100.00
15229;BME280;7717;47.792;12.076;2022-12-29T01:08:54;96063.66;;;4.14;100.00
15229;BME280;7717;47.792;12.076;2022-12-29T01:11:39;96061.09;;;4.11;100.00
15229;BME280;7717;47.792;12.076;2022-12-29T01:14:05;96071.97;;;4.07;100.00
15229;BME280;7717;47.792;12.076;2022-12-29T01:16:30;96066.03;;;4.05;100.00
15229;BME280;7717;47.792;12.076;2022-12-29T01:18:56;96066.03;;;4.05;100.00
15229;BME280;7717;47.792;12.076;2022-12-29T01:21:21;96042.34;;;4.02;100.00
15229;BME280;7717;47.792;12.076;2022-12-29T01:23:47;96066.41;;;4.25;100.00
15229;BME280;7717;47.792;12.076;2022-12-29T01:26:13;96067.03;;;4.13;100.00
15229;BME280;7717;47.792;12.076;2022-12-29T01:28:39;96062.75;;;4.11;100.00
15229;BME280;7717;47.792;12.076;2022-12-29T01:31:07;96068.63;;;4.08;100.00
15229;BME280;7717;47.792;12.076;2022-12-29T01:33:33;96083.13;;;4.17;100.00
15229;BME280;7717;47.792;12.076;2022-12-29T01:36:02;96093.47;;;4.29;100.00
15229;BME280;7717;47.792;12.076;2022-12-29T01:38:28;96099.03;;;4.10;100.00
15229;BME280;7717;47.792;12.076;2022-12-29T01:40:53;96091.22;;;3.97;100.00
15229;BME280;7717;47.792;12.076;2022-12-29T01:43:19;96076.78;;;3.95;100.00
15229;BME280;7717;47.792;12.076;2022-12-29T01:45:48;96085.47;;;4.08;100.00
15229;BME280;7717;47.792;12.076;2022-12-29T01:48:16;96093.66;;;3.93;100.00
15229;BME280;7717;47.792;12.076;2022-12-29T01:50:50;96088.66;;;3.96;100.00
15229;BME280;7717;47.792;12.076;2022-12-29T01:53:25;96101.53;;;4.07;100.00
15229;BME280;7717;47.792;12.076;2022-12-29T01:55:56;96071.22;;;4.11;100.00
15229;BME280;7717;47.792;12.076;2022-12-29T01:58:28;96067.16;;;4.21;100.00
15229;BME280;7717;47.792;12.076;2022-12-29T02:00:54;96073.06;;;4.22;100.00
15229;BME280;7717;47.792;12.076;2022-12-29T02:03:20;96069.63;;;4.18;100.00
15229;BME280;7717;47.792;12.076;2022-12-29T02:05:51;96055.13;;;4.11;100.00
15229;BME280;7717;47.792;12.076;2022-12-29T02:08:20;96067.97;;;4.20;100.00
15229;BME280;7717;47.792;12.076;2022-12-29T02:10:46;96059.25;;;4.04;100.00
15229;BME280;7717;47.792;12.076;2022-12-29T02:13:15;96070.47;;;4.19;100.00
15229;BME280;7717;47.792;12.076;2022-12-29T02:49:03;96018.47;;;3.90;100.00
15229;BME280;7717;47.792;12.076;2022-12-29T02:51:47;96029.09;;;4.18;100.00
15229;BME280;7717;47.792;12.076;2022-12-29T02:54:18;96010.69;;;4.27;100.00
15229;BME280;7717;47.792;12.076;2022-12-29T02:57:02;96011.22;;;4.61;100.00
15229;BME280;7717;47.792;12.076;2022-12-29T02:59:28;96021.84;;;4.38;100.00
15229;BME280;7717;47.792;12.076;2022-12-29T03:07:58;95989.84;;;4.45;100.00
15229;BME280;7717;47.792;12.076;2022-12-29T03:10:50;96011.16;;;4.56;100.00
15229;BME280;7717;47.792;12.076;2022-12-29T03:16:44;96021.81;;;4.35;100.00
15229;BME280;7717;47.792;12.076;2022-12-29T03:19:28;96021.31;;;4.58;100.00
15229;BME280;7717;47.792;12.076;2022-12-29T03:22:10;96012.97;;;4.63;100.00
15229;BME280;7717;47.792;12.076;2022-12-29T03:25:03;96028.56;;;4.35;100.00
15229;BME280;7717;47.792;12.076;2022-12-29T03:27:49;96030.19;;;4.32;100.00
15229;BME280;7717;47.792;12.076;2022-12-29T03:30:15;96025.69;;;4.16;100.00
15229;BME280;7717;47.792;12.076;2022-12-29T03:32:45;96038.09;;;4.01;100.00
15229;BME280;7717;47.792;12.076;2022-12-29T03:35:15;96047.59;;;4.14;100.00
15229;BME280;7717;47.792;12.076;2022-12-29T03:37:55;96029.94;;;4.17;100.00
15229;BME280;7717;47.792;12.076;2022-12-29T03:40:24;96019.09;;;4.24;100.00
15229;BME280;7717;47.792;12.076;2022-12-29T03:42:53;96034.31;;;4.26;100.00
15229;BME280;7717;47.792;12.076;2022-12-29T03:45:19;96025.97;;;4.31;100.00
15229;BME280;7717;47.792;12.076;2022-12-29T03:47:45;96017.72;;;4.43;100.00
15229;BME280;7717;47.792;12.076;2022-12-29T03:50:14;96013.25;;;4.28;100.00
15229;BME280;7717;47.792;12.076;2022-12-29T03:52:39;96030.16;;;4.29;100.00
15229;BME280;7717;47.792;12.076;2022-12-29T03:55:05;96031.75;;;4.24;100.00
15229;BME280;7717;47.792;12.076;2022-12-29T03:57:30;96028.59;;;4.36;100.00
15229;BME280;7717;47.792;12.076;2022-12-29T03:59:56;96027.22;;;4.55;100.00
15229;BME280;7717;47.792;12.076;2022-12-29T04:02:21;96019.75;;;4.64;100.00
15229;BME280;7717;47.792;12.076;2022-12-29T04:04:47;96024.47;;;4.43;100.00
15229;BME280;7717;47.792;12.076;2022-12-29T04:07:12;96024.22;;;4.29;100.00
15229;BME280;7717;47.792;12.076;2022-12-29T04:09:37;96023.50;;;4.35;100.00
15229;BME280;7717;47.792;12.076;2022-12-29T04:12:03;96017.84;;;4.51;100.00
15229;BME280;7717;47.792;12.076;2022-12-29T04:14:28;96025.44;;;4.51;100.00
15229;BME280;7717;47.792;12.076;2022-12-29T04:16:54;96012.22;;;4.69;100.00
15229;BME280;7717;47.792;12.076;2022-12-29T04:19:19;96024.66;;;4.55;100.00
15229;BME280;7717;47.792;12.076;2022-12-29T04:21:44;96018.91;;;4.65;100.00
15229;BME280;7717;47.792;12.076;2022-12-29T04:24:10;96012.03;;;4.57;100.00
15229;BME280;7717;47.792;12.076;2022-12-29T04:26:35;96001.88;;;4.57;100.00
15229;BME280;7717;47.792;12.076;2022-12-29T04:29:01;96011.28;;;4.64;100.00
15229;BME280;7717;47.792;12.076;2022-12-29T04:31:26;96007.78;;;4.57;100.00
15229;BME280;7717;47.792;12.076;2022-12-29T04:33:51;96008.94;;;4.76;100.00
15229;BME280;7717;47.792;12.076;2022-12-29T04:36:16;96003.94;;;4.81;100.00
15229;BME280;7717;47.792;12.076;2022-12-29T04:38:42;96013.34;;;4.88;100.00
15229;BME280;7717;47.792;12.076;2022-12-29T04:41:07;96015.06;;;4.92;100.00
15229;BME280;7717;47.792;12.076;2022-12-29T04:43:32;96022.81;;;5.01;100.00
15229;BME280;7717;47.792;12.076;2022-12-29T04:45:58;96025.50;;;5.11;100.00
15229;BME280;7717;47.792;12.076;2022-12-29T04:48:23;96023.75;;;5.07;100.00
15229;BME280;7717;47.792;12.076;2022-12-29T04:50:48;96031.53;;;5.19;100.00
15229;BME280;7717;47.792;12.076;2022-12-29T04:53:15;96018.78;;;5.13;100.00
15229;BME280;7717;47.792;12.076;2022-12-29T04:55:40;96008.03;;;5.32;100.00
15229;BME280;7717;47.792;12.076;2022-12-29T04:58:06;96003.47;;;5.07;100.00
15229;BME280;7717;47.792;12.076;2022-12-29T05:00:31;96003.78;;;5.31;100.00
15229;BME280;7717;47.792;12.076;2022-12-29T05:02:57;95996.94;;;5.26;100.00
15229;BME280;7717;47.792;12.076;2022-12-29T05:05:22;95972.59;;;5.41;100.00
15229;BME280;7717;47.792;12.076;2022-12-29T05:07:48;95981.03;;;5.39;99.46
15229;BME280;7717;47.792;12.076;2022-12-29T05:10:13;95978.69;;;5.56;98.93
15229;BME280;7717;47.792;12.076;2022-12-29T05:12:39;95972.00;;;5.61;99.53
15229;BME280;7717;47.792;12.076;2022-12-29T05:15:06;95966.97;;;5.67;99.24
15229;BME280;7717;47.792;12.076;2022-12-29T05:17:32;95959.19;;;5.50;99.09
15229;BME280;7717;47.792;12.076;2022-12-29T05:19:58;95953.47;;;5.70;98.23
15229;BME280;7717;47.792;12.076;2022-12-29T05:22:24;95957.81;;;5.80;97.62
15229;BME280;7717;47.792;12.076;2022-12-29T05:24:50;95939.94;;;5.72;97.28
15229;BME280;7717;47.792;12.076;2022-12-29T05:27:15;95891.56;;;5.58;96.76
15229;BME280;7717;47.792;12.076;2022-12-29T05:29:40;95914.59;;;5.75;96.57
15229;BME280;7717;47.792;12.076;2022-12-29T05:32:06;95914.72;;;5.88;96.04
15229;BME280;7717;47.792;12.076;2022-12-29T05:34:31;95937.72;;;6.00;95.95
15229;BME280;7717;47.792;12.076;2022-12-29T05:36:56;95925.63;;;5.79;96.55
15229;BME280;7717;47.792;12.076;2022-12-29T05:39:22;95929.94;;;5.88;96.35
15229;BME280;7717;47.792;12.076;2022-12-29T05:41:47;95918.00;;;5.81;95.97
15229;BME280;7717;47.792;12.076;2022-12-29T05:44:13;95930.00;;;5.94;95.90
15229;BME280;7717;47.792;12.076;2022-12-29T05:46:39;95908.75;;;5.87;95.81
15229;BME280;7717;47.792;12.076;2022-12-29T05:49:05;95915.59;;;5.93;95.65
15229;BME280;7717;47.792;12.076;2022-12-29T05:51:30;95913.81;;;5.86;95.78
15229;BME280;7717;47.792;12.076;2022-12-29T05:53:56;95893.50;;;5.84;95.66
15229;BME280;7717;47.792;12.076;2022-12-29T05:56:21;95940.97;;;5.91;96.09
15229;BME280;7717;47.792;12.076;2022-12-29T05:58:46;95885.72;;;5.67;95.65
15229;BME280;7717;47.792;12.076;2022-12-29T06:01:12;95929.75;;;5.69;96.65
15229;BME280;7717;47.792;12.076;2022-12-29T06:03:37;95933.97;;;5.69;95.98
15229;BME280;7717;47.792;12.076;2022-12-29T06:06:03;95917.25;;;5.88;95.20
15229;BME280;7717;47.792;12.076;2022-12-29T06:08:28;95935.72;;;5.74;95.84
15229;BME280;7717;47.792;12.076;2022-12-29T06:10:53;95948.19;;;5.53;96.40
15229;BME280;7717;47.792;12.076;2022-12-29T06:13:19;95960.94;;;5.57;97.22
15229;BME280;7717;47.792;12.076;2022-12-29T06:15:44;95948.00;;;5.37;96.93
15229;BME280;7717;47.792;12.076;2022-12-29T06:18:09;95944.78;;;5.49;96.59
15229;BME280;7717;47.792;12.076;2022-12-29T06:20:35;95935.50;;;5.53;96.29
15229;BME280;7717;47.792;12.076;2022-12-29T06:23:00;95920.31;;;5.57;95.75
15229;BME280;7717;47.792;12.076;2022-12-29T06:25:25;95937.38;;;5.69;95.45
15229;BME280;7717;47.792;12.076;2022-12-29T06:27:51;95925.28;;;5.48;95.55
15229;BME280;7717;47.792;12.076;2022-12-29T06:30:16;95915.81;;;5.32;94.99
15229;BME280;7717;47.792;12.076;2022-12-29T06:32:42;95939.50;;;5.32;96.42
15229;BME280;7717;47.792;12.076;2022-12-29T06:35:08;95938.88;;;5.50;96.27
15229;BME280;7717;47.792;12.076;2022-12-29T06:37:34;95915.97;;;5.44;95.37
15229;BME280;7717;47.792;12.076;2022-12-29T06:40:00;95917.69;;;5.50;94.95
15229;BME280;7717;47.792;12.076;2022-12-29T06:42:25;95910.91;;;5.47;95.22
15229;BME280;7717;47.792;12.076;2022-12-29T06:44:50;95905.81;;;5.44;95.19
15229;BME280;7717;47.792;12.076;2022-12-29T06:47:16;95921.13;;;5.52;95.22
15229;BME280;7717;47.792;12.076;2022-12-29T06:49:41;95908.41;;;5.49;95.36
15229;BME280;7717;47.792;12.076;2022-12-29T06:52:06;95927.63;;;5.31;96.05
15229;BME280;7717;47.792;12.076;2022-12-29T06:54:32;95932.78;;;5.37;95.96
15229;BME280;7717;47.792;12.076;2022-12-29T06:57:00;95932.75;;;5.34;96.49
15229;BME280;7717;47.792;12.076;2022-12-29T06:59:25;95953.94;;;5.36;96.58
15229;BME280;7717;47.792;12.076;2022-12-29T07:01:51;95940.97;;;5.13;97.25
15229;BME280;7717;47.792;12.076;2022-12-29T07:04:17;95952.00;;;5.17;96.81
15229;BME280;7717;47.792;12.076;2022-12-29T07:06:42;95952.97;;;5.25;97.10
15229;BME280;7717;47.792;12.076;2022-12-29T07:09:08;95954.50;;;5.14;97.10
15229;BME280;7717;47.792;12.076;2022-12-29T07:11:34;95944.19;;;5.01;97.33
15229;BME280;7717;47.792;12.076;2022-12-29T07:14:00;95976.47;;;5.12;97.02
15229;BME280;7717;47.792;12.076;2022-12-29T07:16:25;95948.41;;;4.99;97.33
15229;BME280;7717;47.792;12.076;2022-12-29T07:18:51;95983.09;;;5.02;97.39
15229;BME280;7717;47.792;12.076;2022-12-29T07:21:18;95966.34;;;5.15;97.65
15229;BME280;7717;47.792;12.076;2022-12-29T07:23:43;95960.66;;;5.33;96.50
15229;BME280;7717;47.792;12.076;2022-12-29T07:26:09;95958.19;;;5.40;95.94
15229;BME280;7717;47.792;12.076;2022-12-29T07:28:36;95964.38;;;5.61;95.71
15229;BME280;7717;47.792;12.076;2022-12-29T07:31:03;95949.75;;;5.40;95.45
15229;BME280;7717;47.792;12.076;2022-12-29T07:33:29;95982.00;;;5.49;95.77
15229;BME280;7717;47.792;12.076;2022-12-29T07:35:54;95957.28;;;5.34;95.40
15229;BME280;7717;47.792;12.076;2022-12-29T07:38:20;95956.56;;;5.44;95.13
15229;BME280;7717;47.792;12.076;2022-12-29T07:40:45;95960.03;;;5.52;95.22
15229;BME280;7717;47.792;12.076;2022-12-29T07:43:11;95952.63;;;5.71;94.11
15229;BME280;7717;47.792;12.076;2022-12-29T07:45:36;95968.81;;;5.81;93.97
15229;BME280;7717;47.792;12.076;2022-12-29T07:48:01;95981.16;;;5.50;94.89
15229;BME280;7717;47.792;12.076;2022-12-29T07:50:28;95982.16;;;5.61;95.54
15229;BME280;7717;47.792;12.076;2022-12-29T07:52:53;95986.97;;;5.39;96.18
15229;BME280;7717;47.792;12.076;2022-12-29T07:55:18;95981.25;;;5.57;95.19
15229;BME280;7717;47.792;12.076;2022-12-29T07:57:44;95998.94;;;5.50;95.48
15229;BME280;7717;47.792;12.076;2022-12-29T08:00:09;96009.16;;;5.56;95.83
15229;BME280;7717;47.792;12.076;2022-12-29T08:02:35;95995.06;;;5.84;95.01
15229;BME280;7717;47.792;12.076;2022-12-29T08:05:00;95995.09;;;5.86;94.10
15229;BME280;7717;47.792;12.076;2022-12-29T08:07:26;95985.88;;;5.94;93.63
15229;BME280;7717;47.792;12.076;2022-12-29T08:09:51;95977.50;;;6.01;93.16
15229;BME280;7717;47.792;12.076;2022-12-29T08:12:17;95962.34;;;6.10;92.19
15229;BME280;7717;47.792;12.076;2022-12-29T08:14:42;95978.59;;;6.26;92.67
15229;BME280;7717;47.792;12.076;2022-12-29T08:17:08;95974.41;;;6.30;91.66
15229;BME280;7717;47.792;12.076;2022-12-29T08:19:33;95965.94;;;6.34;91.78
15229;BME280;7717;47.792;12.076;2022-12-29T08:21:58;95966.03;;;6.45;91.06
15229;BME280;7717;47.792;12.076;2022-12-29T08:24:24;95947.47;;;6.54;89.58
15229;BME280;7717;47.792;12.076;2022-12-29T08:26:49;95960.34;;;6.77;89.69
15229;BME280;7717;47.792;12.076;2022-12-29T08:29:14;95945.09;;;6.80;88.68
15229;BME280;7717;47.792;12.076;2022-12-29T08:31:40;95962.19;;;7.02;89.29
15229;BME280;7717;47.792;12.076;2022-12-29T08:34:05;95950.19;;;6.80;88.56
15229;BME280;7717;47.792;12.076;2022-12-29T08:36:31;95956.22;;;6.97;89.19
15229;BME280;7717;47.792;12.076;2022-12-29T08:38:57;95944.47;;;7.19;88.38
15229;BME280;7717;47.792;12.076;2022-12-29T08:41:22;95961.28;;;6.91;88.08
15229;BME280;7717;47.792;12.076;2022-12-29T08:43:48;95953.75;;;7.10;87.82
15229;BME280;7717;47.792;12.076;2022-12-29T08:46:14;95949.53;;;7.16;87.40
15229;BME280;7717;47.792;12.076;2022-12-29T08:48:40;95939.31;;;7.10;87.28
15229;BME280;7717;47.792;12.076;2022-12-29T08:51:08;95944.41;;;7.10;86.44
15229;BME280;7717;47.792;12.076;2022-12-29T08:53:34;95954.63;;;7.16;87.64
15229;BME280;7717;47.792;12.076;2022-12-29T08:56:00;95941.03;;;7.08;86.98
15229;BME280;7717;47.792;12.076;2022-12-29T08:58:26;95930.03;;;7.23;86.28
15229;BME280;7717;47.792;12.076;2022-12-29T09:00:53;95934.34;;;7.36;85.85
15229;BME280;7717;47.792;12.076;2022-12-29T09:03:19;95948.75;;;7.37;85.64
15229;BME280;7717;47.792;12.076;2022-12-29T09:05:49;95939.44;;;7.38;85.75
15229;BME280;7717;47.792;12.076;2022-12-29T09:08:16;95955.66;;;7.62;85.90
15229;BME280;7717;47.792;12.076;2022-12-29T09:10:42;95955.63;;;7.57;85.67
15229;BME280;7717;47.792;12.076;2022-12-29T09:13:07;95966.69;;;7.64;85.88
15229;BME280;7717;47.792;12.076;2022-12-29T09:15:33;95940.38;;;7.66;84.28
15229;BME280;7717;47.792;12.076;2022-12-29T09:17:58;95927.69;;;7.85;83.98
15229;BME280;7717;47.792;12.076;2022-12-29T09:20:23;95933.59;;;7.68;84.21
15229;BME280;7717;47.792;12.076;2022-12-29T09:22:49;95948.13;;;8.03;84.38
15229;BME280;7717;47.792;12.076;2022-12-29T09:25:15;95932.78;;;7.83;83.90
15229;BME280;7717;47.792;12.076;2022-12-29T09:27:40;95948.94;;;7.90;84.31
15229;BME280;7717;47.792;12.076;2022-12-29T09:30:09;95927.72;;;7.92;83.45
15229;BME280;7717;47.792;12.076;2022-12-29T09:32:35;95932.84;;;8.09;82.88
15229;BME280;7717;47.792;12.076;2022-12-29T09:35:01;95903.06;;;8.01;82.22
15229;BME280;7717;47.792;12.076;2022-12-29T09:37:26;95913.28;;;8.13;81.90
15229;BME280;7717;47.792;12.076;2022-12-29T09:39:52;95910.75;;;8.24;81.77
15229;BME280;7717;47.792;12.076;2022-12-29T09:47:21;95917.53;;;8.63;81.99
15229;BME280;7717;47.792;12.076;2022-12-29T09:52:23;95910.72;;;8.65;82.10
15229;BME280;7717;47.792;12.076;2022-12-29T09:55:02;95943.00;;;8.94;84.18
15229;BME280;7717;47.792;12.076;2022-12-29T09:59:55;95921.69;;;9.05;82.40
15229;BME280;7717;47.792;12.076;2022-12-29T10:04:59;95913.91;;;9.40;83.18
15229;BME280;7717;47.792;12.076;2022-12-29T10:07:41;95845.72;;;9.54;78.74
15229;BME280;7717;47.792;12.076;2022-12-29T10:10:17;95857.25;;;10.13;79.84
15229;BME280;7717;47.792;12.076;2022-12-29T10:12:50;95853.56;;;10.48;79.33
15229;BME280;7717;47.792;12.076;2022-12-29T10:17:54;95838.63;;;10.88;77.95
15229;BME280;7717;47.792;12.076;2022-12-29T10:20:31;95856.16;;;10.41;78.33
15229;BME280;7717;47.792;12.076;2022-12-29T10:25:41;95835.91;;;10.12;76.05
15229;BME280;7717;47.792;12.076;2022-12-29T10:28:19;95875.31;;;9.88;78.27
15229;BME280;7717;47.792;12.076;2022-12-29T10:30:46;95922.28;;;9.71;80.78
15229;BME280;7717;47.792;12.076;2022-12-29T10:33:14;95927.47;;;9.51;81.22
15229;BME280;7717;47.792;12.076;2022-12-29T10:35:41;95890.09;;;9.36;78.68
15229;BME280;7717;47.792;12.076;2022-12-29T10:38:20;95916.47;;;9.35;80.54
15229;BME280;7717;47.792;12.076;2022-12-29T10:43:18;95832.19;;;9.39;77.32
15229;BME280;7717;47.792;12.076;2022-12-29T10:45:45;95878.94;;;9.53;78.29
15229;BME280;7717;47.792;12.076;2022-12-29T10:48:14;95879.78;;;9.58;78.93
15229;BME280;7717;47.792;12.076;2022-12-29T10:50:43;95863.66;;;9.39;77.96
15229;BME280;7717;47.792;12.076;2022-12-29T10:53:08;95865.31;;;9.51;77.52
15229;BME280;7717;47.792;12.076;2022-12-29T10:55:37;95873.00;;;9.49;78.51
15229;BME280;7717;47.792;12.076;2022-12-29T10:58:04;95880.50;;;9.79;79.21
15229;BME280;7717;47.792;12.076;2022-12-29T11:00:30;95876.28;;;9.70;79.08
15229;BME280;7717;47.792;12.076;2022-12-29T11:03:00;95864.22;;;9.90;78.35
15229;BME280;7717;47.792;12.076;2022-12-29T11:05:36;95840.44;;;9.78;77.36
15229;BME280;7717;47.792;12.076;2022-12-29T11:08:04;95811.41;;;9.88;76.24
15229;BME280;7717;47.792;12.076;2022-12-29T11:13:02;95830.09;;;10.88;77.70
15229;BME280;7717;47.792;12.076;2022-12-29T11:15:37;95770.78;;;11.76;74.81
15229;BME280;7717;47.792;12.076;2022-12-29T11:18:03;95751.75;;;11.38;72.82
15229;BME280;7717;47.792;12.076;2022-12-29T11:22:54;95743.13;;;11.97;72.28
15229;BME280;7717;47.792;12.076;2022-12-29T11:25:19;95808.06;;;11.43;75.74
15229;BME280;7717;47.792;12.076;2022-12-29T11:27:55;95791.28;;;11.19;73.87
15229;BME280;7717;47.792;12.076;2022-12-29T11:30:24;95799.16;;;11.65;74.71
15229;BME280;7717;47.792;12.076;2022-12-29T11:32:51;95825.31;;;11.30;76.51
15229;BME280;7717;47.792;12.076;2022-12-29T11:35:30;95797.84;;;11.40;75.86
15229;BME280;7717;47.792;12.076;2022-12-29T11:37:56;95687.81;;;12.72;69.35
15229;BME280;7717;47.792;12.076;2022-12-29T11:40:23;95668.03;;;13.53;68.79
15229;BME280;7717;47.792;12.076;2022-12-29T11:42:50;95650.00;;;12.79;68.18
15229;BME280;7717;47.792;12.076;2022-12-29T11:45:17;95701.41;;;13.17;69.98
15229;BME280;7717;47.792;12.076;2022-12-29T11:47:50;95664.91;;;13.76;68.71
15229;BME280;7717;47.792;12.076;2022-12-29T11:50:18;95669.16;;;13.41;69.37
15229;BME280;7717;47.792;12.076;2022-12-29T11:52:44;95694.56;;;13.15;70.56
15229;BME280;7717;47.792;12.076;2022-12-29T11:55:17;95631.56;;;12.62;66.77
15229;BME280;7717;47.792;12.076;2022-12-29T11:57:43;95738.47;;;13.05;73.10
15229;BME280;7717;47.792;12.076;2022-12-29T12:00:19;95704.09;;;12.71;69.90
15229;BME280;7717;47.792;12.076;2022-12-29T12:02:47;95659.91;;;12.96;68.28
15229;BME280;7717;47.792;12.076;2022-12-29T12:05:32;95701.09;;;12.91;70.49
15229;BME280;7717;47.792;12.076;2022-12-29T12:10:29;95667.13;;;13.18;69.53
15229;BME280;7717;47.792;12.076;2022-12-29T12:13:00;95764.16;;;13.83;76.07
15229;BME280;7717;47.792;12.076;2022-12-29T12:15:29;95694.44;;;12.83;70.65
15229;BME280;7717;47.792;12.076;2022-12-29T12:17:57;95677.44;;;11.88;70.09
15229;BME280;7717;47.792;12.076;2022-12-29T12:23:22;95730.63;;;10.57;70.75
15229;BME280;7717;47.792;12.076;2022-12-29T12:25:53;95787.69;;;10.65;75.11
15229;BME280;7717;47.792;12.076;2022-12-29T12:30:56;95787.94;;;10.39;74.87
15229;BME280;7717;47.792;12.076;2022-12-29T12:33:26;95748.16;;;10.08;72.04
15229;BME280;7717;47.792;12.076;2022-12-29T12:43:41;95756.41;;;10.40;72.88
15229;BME280;7717;47.792;12.076;2022-12-29T12:46:28;95793.63;;;10.67;75.20
15229;BME280;7717;47.792;12.076;2022-12-29T13:09:16;95624.66;;;13.39;66.49
15229;BME280;7717;47.792;12.076;2022-12-29T13:12:06;95678.09;;;13.24;69.80
15229;BME280;7717;47.792;12.076;2022-12-29T13:14:43;95639.47;;;13.27;66.93
15229;BME280;7717;47.792;12.076;2022-12-29T13:37:18;95698.00;;;11.85;68.77
15229;BME280;7717;47.792;12.076;2022-12-29T13:39:49;95790.91;;;11.46;74.60
15229;BME280;7717;47.792;12.076;2022-12-29T13:42:16;95714.75;;;11.53;69.44
15229;BME280;7717;47.792;12.076;2022-12-29T13:44:47;95712.25;;;12.48;69.93
15229;BME280;7717;47.792;12.076;2022-12-29T13:47:24;95682.75;;;14.15;68.29
15229;BME280;7717;47.792;12.076;2022-12-29T13:49:53;95651.41;;;14.00;67.50
15229;BME280;7717;47.792;12.076;2022-12-29T13:52:37;95639.34;;;12.96;65.13
15229;BME280;7717;47.792;12.076;2022-12-29T13:57:59;95726.28;;;12.75;70.20
15229;BME280;7717;47.792;12.076;2022-12-29T14:00:28;95689.84;;;11.63;66.97
15229;BME280;7717;47.792;12.076;2022-12-29T14:05:40;95760.97;;;10.88;70.87
15229;BME280;7717;47.792;12.076;2022-12-29T14:08:16;95774.25;;;10.44;71.37
15229;BME280;7717;47.792;12.076;2022-12-29T14:10:47;95777.88;;;10.19;71.80
15229;BME280;7717;47.792;12.076;2022-12-29T14:13:23;95787.38;;;10.07;72.28
15229;BME280;7717;47.792;12.076;2022-12-29T14:15:56;95796.88;;;9.93;72.65
15229;BME280;7717;47.792;12.076;2022-12-29T14:18:33;95778.28;;;9.77;72.06
15229;BME280;7717;47.792;12.076;2022-12-29T14:21:10;95790.06;;;9.92;72.11
15229;BME280;7717;47.792;12.076;2022-12-29T14:23:46;95833.78;;;9.58;75.14
15229;BME280;7717;47.792;12.076;2022-12-29T14:28:56;95808.84;;;9.89;73.88
15229;BME280;7717;47.792;12.076;2022-12-29T14:31:40;95822.56;;;9.76;74.51
15229;BME280;7717;47.792;12.076;2022-12-29T14:36:35;95815.75;;;9.77;74.01
15229;BME280;7717;47.792;12.076;2022-12-29T14:39:01;95814.97;;;9.68;73.96
15229;BME280;7717;47.792;12.076;2022-12-29T14:41:27;95808.19;;;9.64;74.00
15229;BME280;7717;47.792;12.076;2022-12-29T14:43:58;95827.69;;;9.75;75.65
15229;BME280;7717;47.792;12.076;2022-12-29T14:46:24;95817.63;;;9.53;74.59
15229;BME280;7717;47.792;12.076;2022-12-29T14:48:54;95775.91;;;9.51;73.10
15229;BME280;7717;47.792;12.076;2022-12-29T14:51:24;95783.41;;;9.72;72.33
15229;BME280;7717;47.792;12.076;2022-12-29T14:53:52;95790.97;;;9.88;72.60
15229;BME280;7717;47.792;12.076;2022-12-29T14:56:18;95814.91;;;9.75;74.41
15229;BME280;7717;47.792;12.076;2022-12-29T15:01:48;95781.81;;;9.56;73.14
15229;BME280;7717;47.792;12.076;2022-12-29T15:04:18;95790.25;;;9.72;73.43
15229;BME280;7717;47.792;12.076;2022-12-29T15:06:45;95776.63;;;9.70;73.12
15229;BME280;7717;47.792;12.076;2022-12-29T15:12:04;95765.50;;;9.76;72.72
15229;BME280;7717;47.792;12.076;2022-12-29T15:14:35;95757.88;;;9.72;72.89
15229;BME280;7717;47.792;12.076;2022-12-29T15:17:01;95763.91;;;9.62;73.83
15229;BME280;7717;47.792;12.076;2022-12-29T15:19:27;95763.00;;;9.71;73.09
15229;BME280;7717;47.792;12.076;2022-12-29T15:21:53;95797.81;;;9.80;75.75
15229;BME280;7717;47.792;12.076;2022-12-29T15:24:19;95749.31;;;9.75;72.07
15229;BME280;7717;47.792;12.076;2022-12-29T15:26:46;95758.72;;;9.68;73.44
15229;BME280;7717;47.792;12.076;2022-12-29T15:31:57;95774.84;;;9.75;74.14
15229;BME280;7717;47.792;12.076;2022-12-29T15:34:23;95751.09;;;9.65;72.83
15229;BME280;7717;47.792;12.076;2022-12-29T15:36:50;95808.09;;;9.73;75.14